createdAt,value
2023-05-14T00:00:12.330Z,15.76
2023-05-14T00:03:16.453Z,15.72
2023-05-14T00:06:20.591Z,15.80
2023-05-14T00:09:24.426Z,16.01
2023-05-14T00:12:28.834Z,15.88
2023-05-14T00:15:34.639Z,15.97
2023-05-14T00:18:38.789Z,15.91
2023-05-14T00:21:42.898Z,15.78
2023-05-14T00:24:46.608Z,15.80
2023-05-14T00:27:50.653Z,15.66
2023-05-14T00:30:56.222Z,15.64
2023-05-14T00:34:00.021Z,15.56
2023-05-14T00:37:03.872Z,15.68
2023-05-14T00:40:12.002Z,15.76
2023-05-14T00:43:16.251Z,15.58
2023-05-14T00:46:21.818Z,15.53
2023-05-14T00:49:26.387Z,15.64
2023-05-14T00:52:30.734Z,15.82
2023-05-14T00:55:34.774Z,15.69
2023-05-14T00:58:38.760Z,15.53
2023-05-14T01:01:44.198Z,15.39
2023-05-14T01:04:48.137Z,15.43
2023-05-14T01:08:04.753Z,15.27
2023-05-14T01:11:15.512Z,15.46
2023-05-14T01:14:23.590Z,15.58
2023-05-14T01:17:31.088Z,15.26
2023-05-14T01:20:35.012Z,15.08
2023-05-14T01:23:40.244Z,14.85
2023-05-14T01:26:44.204Z,15.15
2023-05-14T01:29:54.955Z,15.11
2023-05-14T01:33:03.192Z,15.00
2023-05-14T01:36:08.001Z,15.38
2023-05-14T01:39:15.871Z,15.52
2023-05-14T01:42:19.902Z,15.50
2023-05-14T01:45:24.204Z,15.43
2023-05-14T01:48:30.143Z,15.40
2023-05-14T01:51:34.086Z,15.34
2023-05-14T01:54:40.917Z,15.50
2023-05-14T01:57:44.736Z,15.48
2023-05-14T02:00:48.502Z,15.04
2023-05-14T02:03:52.468Z,15.00
2023-05-14T02:06:56.485Z,14.99
2023-05-14T02:10:02.949Z,14.87
2023-05-14T02:13:06.864Z,14.93
2023-05-14T02:16:11.134Z,14.79
2023-05-14T02:19:15.147Z,14.84
2023-05-14T02:22:19.188Z,14.83
2023-05-14T02:25:24.631Z,14.79
2023-05-14T02:28:28.582Z,14.81
2023-05-14T02:31:32.411Z,14.78
2023-05-14T02:34:36.221Z,14.94
2023-05-14T02:37:40.112Z,14.95
2023-05-14T02:40:45.304Z,15.01
2023-05-14T02:43:49.062Z,14.79
2023-05-14T02:46:53.494Z,15.03
2023-05-14T02:49:57.250Z,14.91
2023-05-14T02:53:01.949Z,15.21
2023-05-14T02:56:08.287Z,15.15
2023-05-14T02:59:11.987Z,15.33
2023-05-14T03:02:16.483Z,15.44
2023-05-14T03:05:20.981Z,15.16
2023-05-14T03:08:25.127Z,15.19
2023-05-14T03:11:30.542Z,14.98
2023-05-14T03:14:34.405Z,14.99
2023-05-14T03:17:38.152Z,15.22
2023-05-14T03:20:42.170Z,15.30
2023-05-14T03:23:46.095Z,15.34
2023-05-14T03:26:51.324Z,15.02
2023-05-14T03:29:55.356Z,14.76
2023-05-14T03:32:59.426Z,14.98
2023-05-14T03:36:03.311Z,14.67
2023-05-14T03:39:07.531Z,14.88
2023-05-14T03:42:13.953Z,14.88
2023-05-14T03:45:17.685Z,14.73
2023-05-14T03:48:21.783Z,14.57
2023-05-14T03:51:25.635Z,14.69
2023-05-14T03:54:29.374Z,14.46
2023-05-14T03:57:34.730Z,14.95
2023-05-14T04:00:39.361Z,14.99
2023-05-14T04:03:43.309Z,15.13
2023-05-14T04:06:47.971Z,15.22
2023-05-14T04:09:52.264Z,15.28
2023-05-14T04:12:57.570Z,15.36
2023-05-14T04:16:07.131Z,14.92
2023-05-14T04:19:12.661Z,14.56
2023-05-14T04:22:16.524Z,14.89
2023-05-14T04:25:20.387Z,14.96
2023-05-14T04:28:25.575Z,15.07
2023-05-14T04:31:29.257Z,14.99
2023-05-14T04:34:32.960Z,15.27
2023-05-14T04:37:36.660Z,15.13
2023-05-14T04:40:40.473Z,15.22
2023-05-14T04:43:46.487Z,15.04
2023-05-14T04:46:50.189Z,15.24
2023-05-14T04:49:54.007Z,15.29
2023-05-14T04:52:57.696Z,15.37
2023-05-14T04:56:01.508Z,15.41
2023-05-14T04:59:06.857Z,15.50
2023-05-14T05:02:10.626Z,15.61
2023-05-14T05:05:14.685Z,15.69
2023-05-14T05:08:18.564Z,15.88
2023-05-14T05:11:22.530Z,15.65
2023-05-14T05:14:27.912Z,15.83
2023-05-14T05:17:32.041Z,15.89
2023-05-14T05:20:35.877Z,15.89
2023-05-14T05:23:39.954Z,16.03
2023-05-14T05:26:43.782Z,15.97
2023-05-14T05:29:49.294Z,15.89
2023-05-14T05:32:53.138Z,16.07
2023-05-14T05:35:57.030Z,16.25
2023-05-14T05:39:00.862Z,16.34
2023-05-14T05:42:05.821Z,16.37
2023-05-14T05:45:12.112Z,16.04
2023-05-14T05:48:16.012Z,16.20
2023-05-14T05:51:19.936Z,16.12
2023-05-14T05:54:25.401Z,16.31
2023-05-14T05:57:29.321Z,16.27
2023-05-14T06:00:34.723Z,16.11
2023-05-14T06:03:38.655Z,15.99
2023-05-14T06:06:42.755Z,15.97
2023-05-14T06:09:46.586Z,16.01
2023-05-14T06:12:50.419Z,15.86
2023-05-14T06:15:55.878Z,15.94
2023-05-14T06:18:59.745Z,16.19
2023-05-14T06:22:03.820Z,16.33
2023-05-14T06:25:08.638Z,16.33
2023-05-14T06:28:12.556Z,16.62
2023-05-14T06:31:18.090Z,16.63
2023-05-14T06:34:21.986Z,16.72
2023-05-14T06:37:25.873Z,16.40
2023-05-14T06:40:29.652Z,16.57
2023-05-14T06:43:33.523Z,16.56
2023-05-14T06:46:38.972Z,16.74
2023-05-14T06:49:42.889Z,16.65
2023-05-14T06:52:47.111Z,16.49
2023-05-14T06:55:51.226Z,16.51
2023-05-14T06:58:55.165Z,16.66
2023-05-14T07:02:00.594Z,16.54
2023-05-14T07:05:04.601Z,16.76
2023-05-14T07:08:08.669Z,16.63
2023-05-14T07:11:13.612Z,16.84
2023-05-14T07:14:17.608Z,16.74
2023-05-14T07:17:23.013Z,16.20
2023-05-14T07:20:27.441Z,16.37
2023-05-14T07:23:31.338Z,16.45
2023-05-14T07:26:36.796Z,16.42
2023-05-14T07:29:40.786Z,16.23
2023-05-14T07:32:46.343Z,16.52
2023-05-14T07:35:50.266Z,16.25
2023-05-14T07:38:54.287Z,16.07
2023-05-14T07:41:58.123Z,16.25
2023-05-14T07:45:02.031Z,16.26
2023-05-14T07:48:07.942Z,16.39
2023-05-14T07:51:12.230Z,16.31
2023-05-14T07:54:16.171Z,16.56
2023-05-14T07:57:20.096Z,16.21
2023-05-14T08:00:24.330Z,16.12
2023-05-14T08:03:29.925Z,15.97
2023-05-14T08:06:34.332Z,15.63
2023-05-14T08:09:38.182Z,15.70
2023-05-14T08:12:43.184Z,15.73
2023-05-14T08:15:47.443Z,16.17
2023-05-14T08:18:52.835Z,16.11
2023-05-14T08:21:56.852Z,15.93
2023-05-14T08:25:01.373Z,16.28
2023-05-14T08:28:05.406Z,16.21
2023-05-14T08:31:09.367Z,16.01
2023-05-14T08:34:14.851Z,16.30
2023-05-14T08:37:19.112Z,16.20
2023-05-14T08:40:23.373Z,15.73
2023-05-14T08:43:31.469Z,15.77
2023-05-14T08:46:37.877Z,15.90
2023-05-14T08:49:45.248Z,15.61
2023-05-14T08:52:49.329Z,15.94
2023-05-14T08:55:55.446Z,16.01
2023-05-14T08:58:59.502Z,15.67
2023-05-14T09:02:05.240Z,15.55
2023-05-14T09:05:11.537Z,15.56
2023-05-14T09:08:15.977Z,15.66
2023-05-14T09:11:19.808Z,15.59
2023-05-14T09:14:24.803Z,15.91
2023-05-14T09:17:28.910Z,15.90
2023-05-14T09:20:34.521Z,15.76
2023-05-14T09:23:44.554Z,15.87
2023-05-14T09:26:52.618Z,16.17
2023-05-14T09:29:56.588Z,16.13
2023-05-14T09:33:00.680Z,15.98
2023-05-14T09:36:06.285Z,16.09
2023-05-14T09:39:10.369Z,16.15
2023-05-14T09:42:14.211Z,16.11
2023-05-14T09:45:18.458Z,15.74
2023-05-14T09:48:23.296Z,15.71
2023-05-14T09:51:33.071Z,15.82
2023-05-14T09:54:37.702Z,15.81
2023-05-14T09:57:41.689Z,16.06
2023-05-14T10:00:47.210Z,16.31
2023-05-14T10:03:51.581Z,16.59
2023-05-14T10:06:57.732Z,16.42
2023-05-14T10:10:04.694Z,16.31
2023-05-14T10:13:14.966Z,16.01
2023-05-14T10:16:23.531Z,16.02
2023-05-14T10:19:29.701Z,16.25
2023-05-14T10:22:36.880Z,16.37
2023-05-14T10:25:41.560Z,16.12
2023-05-14T10:28:46.077Z,15.86
2023-05-14T10:31:54.100Z,16.40
2023-05-14T10:34:57.930Z,16.61
2023-05-14T10:38:03.281Z,16.46
2023-05-14T10:41:08.948Z,16.55
2023-05-14T10:44:13.591Z,16.52
2023-05-14T10:47:18.638Z,16.57
2023-05-14T10:50:24.143Z,16.76
2023-05-14T10:53:38.857Z,16.70
2023-05-14T10:56:45.560Z,16.94
2023-05-14T10:59:53.435Z,16.98
2023-05-14T11:02:58.695Z,17.08
2023-05-14T11:06:05.787Z,16.84
2023-05-14T11:09:11.330Z,16.70
2023-05-14T11:12:15.450Z,16.82
2023-05-14T11:15:20.525Z,17.31
2023-05-14T11:18:31.961Z,17.76
2023-05-14T11:21:35.869Z,17.72
2023-05-14T11:24:41.635Z,17.98
2023-05-14T11:27:47.079Z,18.20
2023-05-14T11:30:51.441Z,17.97
2023-05-14T11:33:55.381Z,17.70
2023-05-14T11:36:59.412Z,17.33
2023-05-14T11:40:05.301Z,17.08
2023-05-14T11:43:09.281Z,17.23
2023-05-14T11:46:19.175Z,17.05
2023-05-14T11:49:24.212Z,17.28
2023-05-14T11:52:28.025Z,17.42
2023-05-14T11:55:36.131Z,17.70
2023-05-14T11:58:39.974Z,17.77
2023-05-14T12:01:43.943Z,17.76
2023-05-14T12:04:53.701Z,18.06
2023-05-14T12:07:57.733Z,17.96
2023-05-14T12:11:03.364Z,17.76
2023-05-14T12:14:13.717Z,17.34
2023-05-14T12:17:19.395Z,17.29
2023-05-14T12:20:26.652Z,17.44
2023-05-14T12:23:32.033Z,17.01
2023-05-14T12:26:39.076Z,16.76
2023-05-14T12:29:45.131Z,17.08
2023-05-14T12:32:52.151Z,17.12
2023-05-14T12:36:02.489Z,17.12
2023-05-14T12:39:14.471Z,17.23
2023-05-14T12:42:19.832Z,17.30
2023-05-14T12:45:24.057Z,17.09
2023-05-14T12:48:28.189Z,17.11
2023-05-14T12:51:32.129Z,17.41
2023-05-14T12:54:36.033Z,16.87
2023-05-14T12:57:41.736Z,16.84
2023-05-14T13:00:45.654Z,16.73
2023-05-14T13:03:49.673Z,16.93
2023-05-14T13:06:53.890Z,16.87
2023-05-14T13:09:57.897Z,16.53
2023-05-14T13:13:03.390Z,16.13
2023-05-14T13:16:08.076Z,16.00
2023-05-14T13:19:12.076Z,16.23
2023-05-14T13:22:17.410Z,16.20
2023-05-14T13:25:21.495Z,16.36
2023-05-14T13:28:27.003Z,16.04
2023-05-14T13:31:30.986Z,15.70
2023-05-14T13:34:35.073Z,16.00
2023-05-14T13:37:39.140Z,16.24
2023-05-14T13:40:42.988Z,16.22
2023-05-14T13:43:48.378Z,16.36
2023-05-14T13:46:52.450Z,16.56
2023-05-14T13:49:56.757Z,16.67
2023-05-14T13:53:00.729Z,16.69
2023-05-14T13:56:06.748Z,16.67
2023-05-14T13:59:12.649Z,16.63
2023-05-14T14:02:16.683Z,16.55
2023-05-14T14:05:21.502Z,16.52
2023-05-14T14:08:25.503Z,16.63
2023-05-14T14:11:29.492Z,16.49
2023-05-14T14:14:34.952Z,16.44
2023-05-14T14:17:39.337Z,16.29
2023-05-14T14:20:43.274Z,16.66
2023-05-14T14:23:47.813Z,16.48
2023-05-14T14:26:51.726Z,16.40
2023-05-14T14:29:57.110Z,16.50
2023-05-14T14:33:01.588Z,16.37
2023-05-14T14:36:06.112Z,16.58
2023-05-14T14:39:09.959Z,16.53
2023-05-14T14:42:13.885Z,16.74
2023-05-14T14:45:19.474Z,16.84
2023-05-14T14:48:31.733Z,16.79
2023-05-14T14:51:35.783Z,16.76
2023-05-14T14:54:39.749Z,16.84
2023-05-14T14:57:43.652Z,16.87
2023-05-14T15:00:49.213Z,16.71
2023-05-14T15:03:53.218Z,16.72
2023-05-14T15:06:57.108Z,16.86
2023-05-14T15:10:01.113Z,16.65
2023-05-14T15:13:05.574Z,16.87
2023-05-14T15:16:11.574Z,16.92
2023-05-14T15:19:15.753Z,16.78
2023-05-14T15:22:19.726Z,16.88
2023-05-14T15:25:24.735Z,16.90
2023-05-14T15:28:29.042Z,16.92
2023-05-14T15:31:34.817Z,16.99
2023-05-14T15:34:38.993Z,17.02
2023-05-14T15:37:44.449Z,16.90
2023-05-14T15:40:48.954Z,16.60
2023-05-14T15:43:53.082Z,16.66
2023-05-14T15:46:58.406Z,16.48
2023-05-14T15:50:02.674Z,16.54
2023-05-14T15:53:06.591Z,16.51
2023-05-14T15:56:10.568Z,16.54
2023-05-14T15:59:16.843Z,16.34
2023-05-14T16:02:22.278Z,16.42
2023-05-14T16:05:26.306Z,16.38
2023-05-14T16:08:30.264Z,16.42
2023-05-14T16:11:34.247Z,16.46
2023-05-14T16:14:39.016Z,16.48
2023-05-14T16:17:45.996Z,16.43
2023-05-14T16:20:49.939Z,16.30
2023-05-14T16:23:53.872Z,16.14
2023-05-14T16:26:57.792Z,16.25
2023-05-14T16:30:01.708Z,16.13
2023-05-14T16:33:07.201Z,16.17
2023-05-14T16:36:11.389Z,16.19
2023-05-14T16:39:15.358Z,16.22
2023-05-14T16:42:19.324Z,16.08
2023-05-14T16:45:23.415Z,16.10
2023-05-14T16:48:29.733Z,16.06
2023-05-14T16:51:33.965Z,16.08
2023-05-14T16:54:37.914Z,16.03
2023-05-14T16:57:41.794Z,16.04
2023-05-14T17:00:45.791Z,16.15
2023-05-14T17:03:51.265Z,16.21
2023-05-14T17:06:55.086Z,16.16
2023-05-14T17:10:00.304Z,16.13
2023-05-14T17:13:06.137Z,16.08
2023-05-14T17:16:10.097Z,16.13
2023-05-14T17:19:15.636Z,16.26
2023-05-14T17:22:19.627Z,16.18
2023-05-14T17:25:24.268Z,16.33
2023-05-14T17:28:30.164Z,16.40
2023-05-14T17:31:34.047Z,16.32
2023-05-14T17:34:39.430Z,16.32
2023-05-14T17:37:43.580Z,16.37
2023-05-14T17:40:47.519Z,16.34
2023-05-14T17:43:52.733Z,16.25
2023-05-14T17:46:56.857Z,16.23
2023-05-14T17:50:02.325Z,16.17
2023-05-14T17:53:06.185Z,15.95
2023-05-14T17:56:10.279Z,15.92
2023-05-14T17:59:14.150Z,15.95
2023-05-14T18:02:18.043Z,15.86
2023-05-14T18:05:23.620Z,15.90
2023-05-14T18:08:27.617Z,16.08
2023-05-14T18:11:34.175Z,15.87
2023-05-14T18:14:38.124Z,16.15
2023-05-14T18:17:42.469Z,16.22
2023-05-14T18:20:47.816Z,16.02
2023-05-14T18:23:51.747Z,15.87
2023-05-14T18:26:56.314Z,15.74
2023-05-14T18:30:00.180Z,15.66
2023-05-14T18:33:04.249Z,15.75
2023-05-14T18:36:09.765Z,15.68
2023-05-14T18:39:13.681Z,15.82
2023-05-14T18:42:19.014Z,15.64
2023-05-14T18:45:24.398Z,15.61
2023-05-14T18:48:28.646Z,15.48
2023-05-14T18:51:34.036Z,15.41
2023-05-14T18:54:38.842Z,15.61
2023-05-14T18:57:43.037Z,15.51
2023-05-14T19:00:46.930Z,15.33
2023-05-14T19:03:51.052Z,15.47
2023-05-14T19:06:57.005Z,15.65
2023-05-14T19:10:01.004Z,15.46
2023-05-14T19:13:04.988Z,15.29
2023-05-14T19:16:09.110Z,15.21
2023-05-14T19:19:13.501Z,15.06
2023-05-14T19:22:19.805Z,15.03
2023-05-14T19:25:25.031Z,14.93
2023-05-14T19:28:29.214Z,14.88
2023-05-14T19:31:33.150Z,15.00
2023-05-14T19:34:37.155Z,15.14
2023-05-14T19:37:42.355Z,15.21
2023-05-14T19:40:46.248Z,15.11
2023-05-14T19:43:50.114Z,15.10
2023-05-14T19:46:54.296Z,15.01
2023-05-14T19:49:58.086Z,15.07
2023-05-14T19:53:04.432Z,15.06
2023-05-14T19:56:08.462Z,15.22
2023-05-14T19:59:12.446Z,14.92
2023-05-14T20:02:18.542Z,15.02
2023-05-14T20:05:22.834Z,15.18
2023-05-14T20:08:29.315Z,15.24
2023-05-14T20:11:33.271Z,15.27
2023-05-14T20:14:37.267Z,15.11
2023-05-14T20:17:41.611Z,15.20
2023-05-14T20:20:45.535Z,15.19
2023-05-14T20:23:50.847Z,15.25
2023-05-14T20:26:54.764Z,15.33
2023-05-14T20:29:58.662Z,15.21
2023-05-14T20:33:02.640Z,15.28
2023-05-14T20:36:06.856Z,15.41
2023-05-14T20:39:12.480Z,15.34
2023-05-14T20:42:16.247Z,15.51
2023-05-14T20:45:20.353Z,15.48
2023-05-14T20:48:24.196Z,15.52
2023-05-14T20:51:28.137Z,15.49
2023-05-14T20:54:33.475Z,15.61
2023-05-14T20:57:37.509Z,15.69
2023-05-14T21:00:41.613Z,15.54
2023-05-14T21:03:45.581Z,15.65
2023-05-14T21:06:49.557Z,15.68
2023-05-14T21:09:54.967Z,15.57
2023-05-14T21:12:58.883Z,15.69
2023-05-14T21:16:03.278Z,15.68
2023-05-14T21:19:07.432Z,15.38
2023-05-14T21:22:11.418Z,15.57
2023-05-14T21:25:16.946Z,15.56
2023-05-14T21:28:20.889Z,15.72
2023-05-14T21:31:24.766Z,15.69
2023-05-14T21:34:29.854Z,15.71
2023-05-14T21:37:35.661Z,15.49
2023-05-14T21:40:41.037Z,15.49
2023-05-14T21:43:45.445Z,15.62
2023-05-14T21:46:49.515Z,15.42
2023-05-14T21:49:53.240Z,15.27
2023-05-14T21:52:57.202Z,15.36
2023-05-14T21:56:02.487Z,15.22
2023-05-14T21:59:06.365Z,15.41
2023-05-14T22:02:10.251Z,15.64
2023-05-14T22:05:14.151Z,15.68
2023-05-14T22:08:18.421Z,15.44
2023-05-14T22:11:23.865Z,15.55
2023-05-14T22:14:28.047Z,15.25
2023-05-14T22:17:32.082Z,15.51
2023-05-14T22:20:35.961Z,15.15
2023-05-14T22:23:39.820Z,15.33
2023-05-14T22:26:45.324Z,15.47
2023-05-14T22:29:49.559Z,15.56
2023-05-14T22:32:54.480Z,15.32
2023-05-14T22:35:58.393Z,15.06
2023-05-14T22:39:02.339Z,14.93
2023-05-14T22:42:08.104Z,14.73
2023-05-14T22:45:12.470Z,15.17
2023-05-14T22:48:16.396Z,15.23
2023-05-14T22:51:20.308Z,15.26
2023-05-14T22:54:24.209Z,14.93
2023-05-14T22:57:29.620Z,15.29
2023-05-14T23:00:33.555Z,15.29
2023-05-14T23:03:37.430Z,15.47
2023-05-14T23:06:41.394Z,15.42
2023-05-14T23:09:45.306Z,15.42
2023-05-14T23:12:50.556Z,15.61
2023-05-14T23:15:54.529Z,15.63
2023-05-14T23:18:58.579Z,15.73
2023-05-14T23:22:02.621Z,15.71
2023-05-14T23:25:07.290Z,15.53
2023-05-14T23:28:12.855Z,15.59
2023-05-14T23:31:16.808Z,15.53
2023-05-14T23:34:22.354Z,15.60
2023-05-14T23:37:26.589Z,15.52
2023-05-14T23:40:30.398Z,15.53
2023-05-14T23:43:35.728Z,15.68
2023-05-14T23:46:39.739Z,15.75
2023-05-14T23:49:43.508Z,15.65
2023-05-14T23:52:47.327Z,15.54
2023-05-14T23:55:51.310Z,15.47
2023-05-14T23:58:57.049Z,15.61
